sensor_id;sensor_type;location;lat;lon;timestamp;pressure;altitude;pressure_sealevel;temperature;humidity
13068;BME280;6600;51.362;6.686;2022-09-03T00:02:16;100708.06;;;18.53;55.20
13068;BME280;6600;51.362;6.686;2022-09-03T00:07:19;100708.59;;;18.50;55.56
13068;BME280;6600;51.362;6.686;2022-09-03T00:09:50;100706.41;;;18.47;55.82
13068;BME280;6600;51.362;6.686;2022-09-03T00:12:31;100701.78;;;18.48;55.19
13068;BME280;6600;51.362;6.686;2022-09-03T00:15:09;100706.13;;;18.44;55.72
13068;BME280;6600;51.362;6.686;2022-09-03T00:17:43;100707.72;;;18.40;55.82
13068;BME280;6600;51.362;6.686;2022-09-03T00:20:21;100697.13;;;18.38;55.63
13068;BME280;6600;51.362;6.686;2022-09-03T00:22:53;100704.72;;;18.36;55.72
13068;BME280;6600;51.362;6.686;2022-09-03T00:25:25;100700.09;;;18.32;56.17
13068;BME280;6600;51.362;6.686;2022-09-03T00:27:56;100700.91;;;18.27;55.98
13068;BME280;6600;51.362;6.686;2022-09-03T00:30:22;100700.34;;;18.20;56.68
13068;BME280;6600;51.362;6.686;2022-09-03T00:37:50;100698.16;;;18.17;56.88
13068;BME280;6600;51.362;6.686;2022-09-03T00:40:44;100691.66;;;18.13;56.83
13068;BME280;6600;51.362;6.686;2022-09-03T00:43:25;100698.97;;;18.12;57.26
13068;BME280;6600;51.362;6.686;2022-09-03T00:48:33;100698.09;;;18.02;57.63
13068;BME280;6600;51.362;6.686;2022-09-03T00:51:23;100698.06;;;17.97;57.67
13068;BME280;6600;51.362;6.686;2022-09-03T00:57:32;100696.94;;;17.88;58.03
13068;BME280;6600;51.362;6.686;2022-09-03T01:16:00;100699.03;;;17.76;58.71
13068;BME280;6600;51.362;6.686;2022-09-03T01:21:21;100698.50;;;17.74;58.99
13068;BME280;6600;51.362;6.686;2022-09-03T01:29:22;100698.50;;;17.69;58.98
13068;BME280;6600;51.362;6.686;2022-09-03T01:45:02;100691.69;;;17.66;58.89
13068;BME280;6600;51.362;6.686;2022-09-03T01:50:49;100693.84;;;17.69;58.93
13068;BME280;6600;51.362;6.686;2022-09-03T02:01:30;100692.06;;;17.85;58.40
13068;BME280;6600;51.362;6.686;2022-09-03T02:03:57;100694.25;;;17.93;58.21
13068;BME280;6600;51.362;6.686;2022-09-03T02:06:28;100688.81;;;17.93;57.99
13068;BME280;6600;51.362;6.686;2022-09-03T02:08:56;100695.88;;;17.94;57.87
13068;BME280;6600;51.362;6.686;2022-09-03T02:11:21;100699.66;;;17.93;58.28
13068;BME280;6600;51.362;6.686;2022-09-03T02:13:50;100688.88;;;17.98;58.11
13068;BME280;6600;51.362;6.686;2022-09-03T02:16:26;100691.84;;;18.01;57.72
13068;BME280;6600;51.362;6.686;2022-09-03T02:19:06;100689.41;;;18.00;57.79
13068;BME280;6600;51.362;6.686;2022-09-03T02:21:39;100688.91;;;18.03;57.26
13068;BME280;6600;51.362;6.686;2022-09-03T02:24:07;100691.31;;;18.04;57.37
13068;BME280;6600;51.362;6.686;2022-09-03T02:26:34;100691.63;;;18.08;57.40
13068;BME280;6600;51.362;6.686;2022-09-03T02:29:00;100695.97;;;18.09;57.07
13068;BME280;6600;51.362;6.686;2022-09-03T02:31:26;100694.31;;;18.03;57.21
13068;BME280;6600;51.362;6.686;2022-09-03T02:33:54;100699.16;;;17.96;57.75
13068;BME280;6600;51.362;6.686;2022-09-03T02:36:24;100698.34;;;17.95;57.59
13068;BME280;6600;51.362;6.686;2022-09-03T02:38:51;100683.94;;;17.90;57.97
13068;BME280;6600;51.362;6.686;2022-09-03T02:41:16;100696.94;;;17.88;58.06
13068;BME280;6600;51.362;6.686;2022-09-03T02:43:55;100687.16;;;17.82;58.64
13068;BME280;6600;51.362;6.686;2022-09-03T02:46:28;100694.72;;;17.80;58.50
13068;BME280;6600;51.362;6.686;2022-09-03T02:48:56;100686.06;;;17.78;58.43
13068;BME280;6600;51.362;6.686;2022-09-03T02:51:21;100677.38;;;17.76;58.73
13068;BME280;6600;51.362;6.686;2022-09-03T02:53:46;100680.63;;;17.78;58.50
13068;BME280;6600;51.362;6.686;2022-09-03T02:56:12;100684.41;;;17.77;58.77
13068;BME280;6600;51.362;6.686;2022-09-03T02:58:38;100690.13;;;17.75;58.64
13068;BME280;6600;51.362;6.686;2022-09-03T03:01:04;100686.59;;;17.75;58.98
13068;BME280;6600;51.362;6.686;2022-09-03T03:03:29;100687.66;;;17.74;59.03
13068;BME280;6600;51.362;6.686;2022-09-03T03:05:57;100689.56;;;17.73;58.66
13068;BME280;6600;51.362;6.686;2022-09-03T03:08:26;100683.88;;;17.80;58.67
13068;BME280;6600;51.362;6.686;2022-09-03T03:10:54;100682.50;;;17.72;58.93
13068;BME280;6600;51.362;6.686;2022-09-03T03:13:28;100688.44;;;17.64;59.21
13068;BME280;6600;51.362;6.686;2022-09-03T03:15:58;100686.44;;;17.54;59.53
13068;BME280;6600;51.362;6.686;2022-09-03T03:18:23;100686.88;;;17.41;60.24
13068;BME280;6600;51.362;6.686;2022-09-03T03:20:49;100678.16;;;17.29;60.82
13068;BME280;6600;51.362;6.686;2022-09-03T03:23:15;100679.16;;;17.18;61.24
13068;BME280;6600;51.362;6.686;2022-09-03T03:25:40;100679.66;;;17.10;61.53
13068;BME280;6600;51.362;6.686;2022-09-03T03:28:06;100681.19;;;17.01;62.00
13068;BME280;6600;51.362;6.686;2022-09-03T03:30:32;100677.63;;;16.95;62.27
13068;BME280;6600;51.362;6.686;2022-09-03T03:32:58;100677.84;;;16.89;62.69
13068;BME280;6600;51.362;6.686;2022-09-03T03:35:24;100673.75;;;16.86;62.69
13068;BME280;6600;51.362;6.686;2022-09-03T03:37:49;100680.50;;;16.84;62.74
13068;BME280;6600;51.362;6.686;2022-09-03T03:40:15;100673.13;;;16.79;63.08
13068;BME280;6600;51.362;6.686;2022-09-03T03:42:41;100669.66;;;16.79;63.13
13068;BME280;6600;51.362;6.686;2022-09-03T03:45:07;100670.72;;;16.78;63.41
13068;BME280;6600;51.362;6.686;2022-09-03T03:47:34;100675.31;;;16.77;63.54
13068;BME280;6600;51.362;6.686;2022-09-03T03:50:00;100671.22;;;16.75;63.54
13068;BME280;6600;51.362;6.686;2022-09-03T03:52:25;100685.28;;;16.72;63.87
13068;BME280;6600;51.362;6.686;2022-09-03T03:54:52;100678.47;;;16.69;63.98
13068;BME280;6600;51.362;6.686;2022-09-03T03:57:18;100678.72;;;16.67;63.77
13068;BME280;6600;51.362;6.686;2022-09-03T03:59:44;100673.06;;;16.69;63.76
13068;BME280;6600;51.362;6.686;2022-09-03T04:02:10;100670.09;;;16.71;63.79
13068;BME280;6600;51.362;6.686;2022-09-03T04:04:36;100676.56;;;16.70;63.72
13068;BME280;6600;51.362;6.686;2022-09-03T04:07:01;100666.03;;;16.68;63.82
13068;BME280;6600;51.362;6.686;2022-09-03T04:09:27;100668.47;;;16.70;64.15
13068;BME280;6600;51.362;6.686;2022-09-03T04:11:52;100670.63;;;16.67;64.17
13068;BME280;6600;51.362;6.686;2022-09-03T04:14:17;100669.50;;;16.63;64.35
13068;BME280;6600;51.362;6.686;2022-09-03T04:16:43;100666.47;;;16.60;64.43
13068;BME280;6600;51.362;6.686;2022-09-03T04:19:11;100664.03;;;16.58;64.20
13068;BME280;6600;51.362;6.686;2022-09-03T04:21:37;100672.66;;;16.55;64.55
13068;BME280;6600;51.362;6.686;2022-09-03T04:24:04;100666.66;;;16.53;64.90
13068;BME280;6600;51.362;6.686;2022-09-03T04:26:31;100660.53;;;16.58;64.76
13068;BME280;6600;51.362;6.686;2022-09-03T04:29:05;100663.97;;;16.53;64.93
13068;BME280;6600;51.362;6.686;2022-09-03T04:31:31;100669.38;;;16.53;65.07
13068;BME280;6600;51.362;6.686;2022-09-03T04:33:57;100659.13;;;16.55;64.96
13068;BME280;6600;51.362;6.686;2022-09-03T04:36:25;100652.66;;;16.56;64.97
13068;BME280;6600;51.362;6.686;2022-09-03T04:38:52;100659.38;;;16.54;65.21
13068;BME280;6600;51.362;6.686;2022-09-03T04:41:24;100660.66;;;16.51;65.19
13068;BME280;6600;51.362;6.686;2022-09-03T04:43:51;100664.19;;;16.52;65.20
13068;BME280;6600;51.362;6.686;2022-09-03T04:46:18;100665.53;;;16.49;65.33
13068;BME280;6600;51.362;6.686;2022-09-03T04:48:47;100661.19;;;16.48;65.27
13068;BME280;6600;51.362;6.686;2022-09-03T04:51:17;100662.78;;;16.44;65.19
13068;BME280;6600;51.362;6.686;2022-09-03T04:53:45;100665.50;;;16.44;65.76
13068;BME280;6600;51.362;6.686;2022-09-03T04:56:19;100663.03;;;16.43;65.78
13068;BME280;6600;51.362;6.686;2022-09-03T04:58:45;100668.13;;;16.39;65.88
13068;BME280;6600;51.362;6.686;2022-09-03T05:01:14;100668.13;;;16.39;66.14
13068;BME280;6600;51.362;6.686;2022-09-03T05:03:40;100674.06;;;16.36;66.35
13068;BME280;6600;51.362;6.686;2022-09-03T05:06:05;100668.66;;;16.36;66.27
13068;BME280;6600;51.362;6.686;2022-09-03T05:08:32;100674.06;;;16.36;66.58
13068;BME280;6600;51.362;6.686;2022-09-03T05:11:01;100674.06;;;16.36;66.56
13068;BME280;6600;51.362;6.686;2022-09-03T05:13:27;100669.19;;;16.38;66.63
13068;BME280;6600;51.362;6.686;2022-09-03T05:16:02;100670.84;;;16.39;66.57
13068;BME280;6600;51.362;6.686;2022-09-03T05:18:28;100670.59;;;16.41;66.39
13068;BME280;6600;51.362;6.686;2022-09-03T05:21:04;100671.97;;;16.43;66.53
13068;BME280;6600;51.362;6.686;2022-09-03T05:23:30;100663.34;;;16.46;66.22
13068;BME280;6600;51.362;6.686;2022-09-03T05:26:01;100672.59;;;16.50;66.32
13068;BME280;6600;51.362;6.686;2022-09-03T05:28:28;100671.50;;;16.51;66.29
13068;BME280;6600;51.362;6.686;2022-09-03T05:31:05;100675.34;;;16.55;66.47
13068;BME280;6600;51.362;6.686;2022-09-03T05:33:37;100673.53;;;16.61;66.46
13068;BME280;6600;51.362;6.686;2022-09-03T05:36:05;100678.72;;;16.67;66.30
13068;BME280;6600;51.362;6.686;2022-09-03T05:38:30;100676.88;;;16.73;66.19
13068;BME280;6600;51.362;6.686;2022-09-03T05:41:00;100672.06;;;16.80;66.04
13068;BME280;6600;51.362;6.686;2022-09-03T05:43:26;100667.03;;;16.89;65.77
13068;BME280;6600;51.362;6.686;2022-09-03T05:46:00;100672.50;;;16.99;65.16
13068;BME280;6600;51.362;6.686;2022-09-03T05:48:30;100672.59;;;17.09;64.97
13068;BME280;6600;51.362;6.686;2022-09-03T05:51:07;100672.16;;;17.22;64.49
13068;BME280;6600;51.362;6.686;2022-09-03T05:53:34;100680.09;;;17.34;64.15
13068;BME280;6600;51.362;6.686;2022-09-03T05:56:05;100680.16;;;17.44;63.74
13068;BME280;6600;51.362;6.686;2022-09-03T05:58:36;100676.69;;;17.53;63.95
13068;BME280;6600;51.362;6.686;2022-09-03T06:03:34;100682.22;;;17.69;63.07
13068;BME280;6600;51.362;6.686;2022-09-03T06:06:01;100679.00;;;17.77;62.98
13068;BME280;6600;51.362;6.686;2022-09-03T06:08:26;100681.22;;;17.85;62.86
13068;BME280;6600;51.362;6.686;2022-09-03T06:10:57;100679.03;;;17.87;62.80
13068;BME280;6600;51.362;6.686;2022-09-03T06:13:23;100674.72;;;17.91;62.42
13068;BME280;6600;51.362;6.686;2022-09-03T06:15:48;100681.25;;;17.95;62.93
13068;BME280;6600;51.362;6.686;2022-09-03T06:18:14;100678.56;;;18.00;62.46
13068;BME280;6600;51.362;6.686;2022-09-03T06:20:39;100686.19;;;18.08;61.78
13068;BME280;6600;51.362;6.686;2022-09-03T06:23:04;100685.13;;;18.09;62.50
13068;BME280;6600;51.362;6.686;2022-09-03T06:25:30;100672.13;;;18.16;62.42
13068;BME280;6600;51.362;6.686;2022-09-03T06:27:56;100675.13;;;18.25;62.06
13068;BME280;6600;51.362;6.686;2022-09-03T06:30:21;100679.25;;;18.37;62.31
13068;BME280;6600;51.362;6.686;2022-09-03T06:32:48;100669.78;;;18.55;62.15
13068;BME280;6600;51.362;6.686;2022-09-03T06:35:18;100676.59;;;18.73;62.13
13068;BME280;6600;51.362;6.686;2022-09-03T06:37:44;100674.47;;;18.95;61.45
13068;BME280;6600;51.362;6.686;2022-09-03T06:40:10;100677.97;;;19.10;60.84
13068;BME280;6600;51.362;6.686;2022-09-03T06:42:54;100679.59;;;19.32;61.11
13068;BME280;6600;51.362;6.686;2022-09-03T06:45:20;100680.13;;;19.49;60.67
13068;BME280;6600;51.362;6.686;2022-09-03T06:47:45;100678.72;;;19.72;59.79
13068;BME280;6600;51.362;6.686;2022-09-03T06:50:10;100678.94;;;19.85;58.60
13068;BME280;6600;51.362;6.686;2022-09-03T06:52:36;100679.16;;;19.99;58.26
13068;BME280;6600;51.362;6.686;2022-09-03T06:55:01;100678.56;;;20.12;59.13
13068;BME280;6600;51.362;6.686;2022-09-03T06:57:27;100674.13;;;20.26;57.58
13068;BME280;6600;51.362;6.686;2022-09-03T06:59:53;100681.19;;;20.37;57.67
13068;BME280;6600;51.362;6.686;2022-09-03T07:02:19;100677.59;;;20.42;57.96
13068;BME280;6600;51.362;6.686;2022-09-03T07:04:47;100675.88;;;20.61;57.61
13068;BME280;6600;51.362;6.686;2022-09-03T07:07:14;100678.53;;;20.66;57.06
13068;BME280;6600;51.362;6.686;2022-09-03T07:09:40;100684.47;;;20.73;55.97
13068;BME280;6600;51.362;6.686;2022-09-03T07:12:06;100679.28;;;20.77;56.48
13068;BME280;6600;51.362;6.686;2022-09-03T07:14:31;100673.25;;;20.80;55.97
13068;BME280;6600;51.362;6.686;2022-09-03T07:16:57;100678.06;;;20.93;56.77
13068;BME280;6600;51.362;6.686;2022-09-03T07:19:22;100678.06;;;20.93;54.92
13068;BME280;6600;51.362;6.686;2022-09-03T07:21:48;100679.69;;;20.94;54.61
13068;BME280;6600;51.362;6.686;2022-09-03T07:24:13;100676.38;;;21.02;54.71
13068;BME280;6600;51.362;6.686;2022-09-03T07:26:41;100684.25;;;21.03;54.63
13068;BME280;6600;51.362;6.686;2022-09-03T07:29:10;100683.63;;;21.17;55.37
13068;BME280;6600;51.362;6.686;2022-09-03T07:31:38;100686.84;;;21.24;54.05
13068;BME280;6600;51.362;6.686;2022-09-03T07:34:06;100687.63;;;21.24;54.21
13068;BME280;6600;51.362;6.686;2022-09-03T07:36:44;100690.94;;;21.21;53.67
13068;BME280;6600;51.362;6.686;2022-09-03T07:39:13;100683.31;;;21.23;53.59
13068;BME280;6600;51.362;6.686;2022-09-03T07:41:39;100692.00;;;21.25;53.05
13068;BME280;6600;51.362;6.686;2022-09-03T07:44:07;100682.66;;;21.31;54.01
13068;BME280;6600;51.362;6.686;2022-09-03T07:46:34;100681.19;;;21.44;53.98
13068;BME280;6600;51.362;6.686;2022-09-03T07:49:00;100689.94;;;21.41;53.97
13068;BME280;6600;51.362;6.686;2022-09-03T07:51:28;100688.47;;;21.48;53.97
13068;BME280;6600;51.362;6.686;2022-09-03T07:53:57;100689.97;;;21.64;53.06
13068;BME280;6600;51.362;6.686;2022-09-03T07:56:24;100688.91;;;21.60;53.61
13068;BME280;6600;51.362;6.686;2022-09-03T07:58:50;100693.78;;;21.63;52.65
13068;BME280;6600;51.362;6.686;2022-09-03T08:01:18;100686.59;;;21.73;52.89
13068;BME280;6600;51.362;6.686;2022-09-03T08:03:46;100681.72;;;21.70;52.27
13068;BME280;6600;51.362;6.686;2022-09-03T08:06:13;100677.59;;;21.72;52.71
13068;BME280;6600;51.362;6.686;2022-09-03T08:08:39;100684.28;;;21.85;51.79
13068;BME280;6600;51.362;6.686;2022-09-03T08:11:07;100681.50;;;21.90;51.64
13068;BME280;6600;51.362;6.686;2022-09-03T08:13:53;100693.34;;;22.04;51.91
13068;BME280;6600;51.362;6.686;2022-09-03T08:16:19;100688.19;;;22.02;51.70
13068;BME280;6600;51.362;6.686;2022-09-03T08:18:44;100693.34;;;22.04;51.46
13068;BME280;6600;51.362;6.686;2022-09-03T08:21:16;100694.25;;;22.18;51.14
13068;BME280;6600;51.362;6.686;2022-09-03T08:23:44;100691.84;;;22.17;51.03
13068;BME280;6600;51.362;6.686;2022-09-03T08:26:10;100698.47;;;22.29;51.08
13068;BME280;6600;51.362;6.686;2022-09-03T08:28:37;100700.03;;;22.35;51.76
13068;BME280;6600;51.362;6.686;2022-09-03T08:31:13;100696.66;;;22.43;50.74
13068;BME280;6600;51.362;6.686;2022-09-03T08:33:40;100700.47;;;22.42;50.79
13068;BME280;6600;51.362;6.686;2022-09-03T08:38:33;100698.72;;;22.51;51.08
13068;BME280;6600;51.362;6.686;2022-09-03T08:41:03;100703.66;;;22.49;51.09
13068;BME280;6600;51.362;6.686;2022-09-03T08:43:30;100706.72;;;22.67;50.60
13068;BME280;6600;51.362;6.686;2022-09-03T08:45:57;100695.19;;;22.70;50.41
13068;BME280;6600;51.362;6.686;2022-09-03T08:48:24;100698.91;;;22.79;51.06
13068;BME280;6600;51.362;6.686;2022-09-03T08:50:53;100691.25;;;22.94;50.41
13068;BME280;6600;51.362;6.686;2022-09-03T08:55:51;100698.22;;;23.19;49.74
13068;BME280;6600;51.362;6.686;2022-09-03T08:58:19;100701.69;;;23.25;49.49
13068;BME280;6600;51.362;6.686;2022-09-03T09:03:54;100702.69;;;23.47;49.41
13068;BME280;6600;51.362;6.686;2022-09-03T09:22:34;100705.34;;;23.93;47.84
13068;BME280;6600;51.362;6.686;2022-09-03T09:25:07;100699.16;;;23.88;48.58
13068;BME280;6600;51.362;6.686;2022-09-03T09:27:40;100701.91;;;23.88;48.64
13068;BME280;6600;51.362;6.686;2022-09-03T09:30:12;100697.94;;;23.94;49.01
13068;BME280;6600;51.362;6.686;2022-09-03T09:32:41;100699.38;;;24.19;47.82
13068;BME280;6600;51.362;6.686;2022-09-03T09:35:09;100701.41;;;24.27;48.29
13068;BME280;6600;51.362;6.686;2022-09-03T09:37:55;100699.59;;;24.22;48.74
13068;BME280;6600;51.362;6.686;2022-09-03T09:40:23;100691.84;;;24.10;48.34
13068;BME280;6600;51.362;6.686;2022-09-03T09:42:50;100700.59;;;23.99;48.75
13068;BME280;6600;51.362;6.686;2022-09-03T09:45:23;100707.28;;;24.06;49.67
13068;BME280;6600;51.362;6.686;2022-09-03T09:47:53;100704.44;;;24.25;48.77
13068;BME280;6600;51.362;6.686;2022-09-03T09:50:19;100703.19;;;24.45;48.44
13068;BME280;6600;51.362;6.686;2022-09-03T09:52:46;100712.31;;;24.54;47.19
13068;BME280;6600;51.362;6.686;2022-09-03T09:55:18;100701.22;;;24.59;48.14
13068;BME280;6600;51.362;6.686;2022-09-03T09:57:45;100696.69;;;24.54;48.26
13068;BME280;6600;51.362;6.686;2022-09-03T10:00:13;100705.88;;;24.58;48.71
13068;BME280;6600;51.362;6.686;2022-09-03T10:02:50;100699.44;;;24.77;48.74
13068;BME280;6600;51.362;6.686;2022-09-03T10:05:26;100696.59;;;24.82;48.28
13068;BME280;6600;51.362;6.686;2022-09-03T10:08:07;100705.53;;;24.74;47.99
13068;BME280;6600;51.362;6.686;2022-09-03T10:10:45;100700.66;;;24.84;49.38
13068;BME280;6600;51.362;6.686;2022-09-03T10:13:19;100695.47;;;24.83;48.39
13068;BME280;6600;51.362;6.686;2022-09-03T10:15:50;100703.16;;;24.94;48.52
13068;BME280;6600;51.362;6.686;2022-09-03T10:18:38;100694.88;;;25.08;48.90
13068;BME280;6600;51.362;6.686;2022-09-03T10:21:14;100707.22;;;25.19;49.57
13068;BME280;6600;51.362;6.686;2022-09-03T10:26:33;100694.06;;;25.38;48.62
13068;BME280;6600;51.362;6.686;2022-09-03T10:29:03;100691.34;;;25.60;49.57
13068;BME280;6600;51.362;6.686;2022-09-03T10:37:06;100703.16;;;25.70;49.71
13068;BME280;6600;51.362;6.686;2022-09-03T10:42:32;100698.81;;;25.77;49.92
13068;BME280;6600;51.362;6.686;2022-09-03T10:45:37;100693.19;;;25.82;48.93
13068;BME280;6600;51.362;6.686;2022-09-03T10:50:26;100700.47;;;25.87;49.27
13068;BME280;6600;51.362;6.686;2022-09-03T10:53:36;100708.09;;;25.98;50.70
13068;BME280;6600;51.362;6.686;2022-09-03T10:56:18;100702.28;;;26.00;50.61
13068;BME280;6600;51.362;6.686;2022-09-03T11:02:14;100698.63;;;26.13;50.79
13068;BME280;6600;51.362;6.686;2022-09-03T11:04:24;100702.97;;;26.14;49.40
13068;BME280;6600;51.362;6.686;2022-09-03T11:06:56;100700.28;;;26.31;49.94
13068;BME280;6600;51.362;6.686;2022-09-03T11:09:34;100699.16;;;26.24;48.82
13068;BME280;6600;51.362;6.686;2022-09-03T11:12:08;100701.69;;;26.11;49.71
13068;BME280;6600;51.362;6.686;2022-09-03T11:14:44;100712.00;;;26.06;49.31
13068;BME280;6600;51.362;6.686;2022-09-03T11:17:16;100701.47;;;25.91;49.48
13068;BME280;6600;51.362;6.686;2022-09-03T11:19:54;100699.88;;;26.07;49.92
13068;BME280;6600;51.362;6.686;2022-09-03T11:22:21;100700.59;;;26.21;49.77
13068;BME280;6600;51.362;6.686;2022-09-03T11:24:53;100695.97;;;25.91;49.29
13068;BME280;6600;51.362;6.686;2022-09-03T11:27:31;100692.63;;;26.02;49.73
13068;BME280;6600;51.362;6.686;2022-09-03T11:30:04;100703.72;;;25.89;51.05
13068;BME280;6600;51.362;6.686;2022-09-03T11:32:40;100705.94;;;25.87;51.44
13068;BME280;6600;51.362;6.686;2022-09-03T11:35:16;100697.72;;;25.78;51.38
13068;BME280;6600;51.362;6.686;2022-09-03T11:37:52;100693.78;;;25.71;52.19
13068;BME280;6600;51.362;6.686;2022-09-03T11:40:19;100703.84;;;25.84;52.40
13068;BME280;6600;51.362;6.686;2022-09-03T11:42:46;100697.38;;;25.80;51.49
13068;BME280;6600;51.362;6.686;2022-09-03T11:47:49;100683.81;;;25.75;52.78
13068;BME280;6600;51.362;6.686;2022-09-03T11:52:47;100689.34;;;25.52;54.02
13068;BME280;6600;51.362;6.686;2022-09-03T11:55:30;100676.75;;;25.51;54.12
13068;BME280;6600;51.362;6.686;2022-09-03T11:57:56;100684.56;;;25.67;55.30
13068;BME280;6600;51.362;6.686;2022-09-03T12:00:22;100676.56;;;25.87;53.87
13068;BME280;6600;51.362;6.686;2022-09-03T12:02:55;100676.34;;;25.67;52.62
13068;BME280;6600;51.362;6.686;2022-09-03T12:10:51;100690.47;;;25.91;52.43
13068;BME280;6600;51.362;6.686;2022-09-03T12:18:54;100689.72;;;26.07;52.96
13068;BME280;6600;51.362;6.686;2022-09-03T12:21:22;100681.16;;;26.09;51.99
13068;BME280;6600;51.362;6.686;2022-09-03T12:23:49;100687.47;;;26.09;51.80
13068;BME280;6600;51.362;6.686;2022-09-03T12:26:19;100686.72;;;25.78;51.93
13068;BME280;6600;51.362;6.686;2022-09-03T12:28:49;100678.66;;;25.82;51.75
13068;BME280;6600;51.362;6.686;2022-09-03T12:33:53;100680.31;;;25.91;52.00
13068;BME280;6600;51.362;6.686;2022-09-03T12:36:21;100677.56;;;26.00;52.65
13068;BME280;6600;51.362;6.686;2022-09-03T12:38:47;100677.56;;;26.00;51.86
13068;BME280;6600;51.362;6.686;2022-09-03T12:41:24;100680.47;;;25.95;51.58
13068;BME280;6600;51.362;6.686;2022-09-03T12:43:56;100680.19;;;26.05;51.96
13068;BME280;6600;51.362;6.686;2022-09-03T12:46:24;100685.91;;;25.78;51.76
13068;BME280;6600;51.362;6.686;2022-09-03T12:51:19;100685.28;;;25.81;52.09
13068;BME280;6600;51.362;6.686;2022-09-03T12:53:45;100681.59;;;25.85;52.62
13068;BME280;6600;51.362;6.686;2022-09-03T12:56:11;100676.56;;;25.79;53.48
13068;BME280;6600;51.362;6.686;2022-09-03T12:58:51;100666.59;;;26.00;53.16
13068;BME280;6600;51.362;6.686;2022-09-03T13:06:24;100667.91;;;26.11;52.67
13068;BME280;6600;51.362;6.686;2022-09-03T13:08:58;100668.63;;;26.25;51.77
13068;BME280;6600;51.362;6.686;2022-09-03T13:11:25;100666.06;;;26.37;52.89
13068;BME280;6600;51.362;6.686;2022-09-03T13:13:59;100661.38;;;26.46;52.68
13068;BME280;6600;51.362;6.686;2022-09-03T13:35:14;100646.00;;;26.97;52.90
13068;BME280;6600;51.362;6.686;2022-09-03T13:37:51;100640.34;;;27.02;52.97
13068;BME280;6600;51.362;6.686;2022-09-03T13:40:25;100649.25;;;26.99;51.28
13068;BME280;6600;51.362;6.686;2022-09-03T13:42:57;100648.72;;;26.80;52.61
13068;BME280;6600;51.362;6.686;2022-09-03T13:45:40;100636.63;;;26.98;51.29
13068;BME280;6600;51.362;6.686;2022-09-03T13:48:27;100652.56;;;27.30;51.85
13068;BME280;6600;51.362;6.686;2022-09-03T13:51:16;100639.25;;;27.49;51.33
13068;BME280;6600;51.362;6.686;2022-09-03T13:54:04;100645.78;;;27.66;50.96
13068;BME280;6600;51.362;6.686;2022-09-03T14:07:53;100642.28;;;27.56;50.31
13068;BME280;6600;51.362;6.686;2022-09-03T14:16:07;100636.06;;;27.22;50.38
13068;BME280;6600;51.362;6.686;2022-09-03T14:18:37;100634.91;;;27.31;50.39
13068;BME280;6600;51.362;6.686;2022-09-03T14:21:52;100638.81;;;27.30;50.92
13068;BME280;6600;51.362;6.686;2022-09-03T14:26:58;100648.31;;;27.50;50.28
13068;BME280;6600;51.362;6.686;2022-09-03T14:29:28;100638.69;;;27.65;50.39
13068;BME280;6600;51.362;6.686;2022-09-03T14:40:32;100642.75;;;27.03;52.13
13068;BME280;6600;51.362;6.686;2022-09-03T14:54:39;100638.56;;;26.72;52.74
13068;BME280;6600;51.362;6.686;2022-09-03T15:00:06;100637.13;;;26.74;52.65
13068;BME280;6600;51.362;6.686;2022-09-03T15:10:54;100632.78;;;26.82;51.65
13068;BME280;6600;51.362;6.686;2022-09-03T15:13:29;100627.56;;;27.06;52.19
13068;BME280;6600;51.362;6.686;2022-09-03T15:19:01;100633.75;;;27.32;50.60
13068;BME280;6600;51.362;6.686;2022-09-03T15:29:39;100641.31;;;26.80;52.21
13068;BME280;6600;51.362;6.686;2022-09-03T15:32:37;100632.41;;;26.66;52.24
13068;BME280;6600;51.362;6.686;2022-09-03T15:35:37;100628.06;;;26.48;52.53
13068;BME280;6600;51.362;6.686;2022-09-03T15:38:12;100626.28;;;26.43;52.65
13068;BME280;6600;51.362;6.686;2022-09-03T15:43:16;100632.28;;;26.37;52.98
13068;BME280;6600;51.362;6.686;2022-09-03T15:51:26;100635.00;;;26.28;53.37
13068;BME280;6600;51.362;6.686;2022-09-03T15:54:35;100641.16;;;26.42;52.97
13068;BME280;6600;51.362;6.686;2022-09-03T15:56:49;100636.63;;;26.46;52.91
13068;BME280;6600;51.362;6.686;2022-09-03T16:02:04;100629.53;;;26.37;53.71
13068;BME280;6600;51.362;6.686;2022-09-03T16:10:06;100638.59;;;26.54;51.92
13068;BME280;6600;51.362;6.686;2022-09-03T16:12:56;100640.81;;;26.70;51.70
13068;BME280;6600;51.362;6.686;2022-09-03T16:18:08;100636.63;;;26.98;51.09
13068;BME280;6600;51.362;6.686;2022-09-03T16:20:45;100641.91;;;27.11;49.87
13068;BME280;6600;51.362;6.686;2022-09-03T16:23:25;100645.94;;;27.14;50.40
13068;BME280;6600;51.362;6.686;2022-09-03T16:25:59;100637.22;;;27.12;50.00
13068;BME280;6600;51.362;6.686;2022-09-03T16:38:48;100635.34;;;26.87;50.94
13068;BME280;6600;51.362;6.686;2022-09-03T16:49:39;100644.41;;;26.79;51.79
13068;BME280;6600;51.362;6.686;2022-09-03T16:52:19;100640.16;;;26.73;51.89
13068;BME280;6600;51.362;6.686;2022-09-03T17:00:20;100640.53;;;26.54;52.13
13068;BME280;6600;51.362;6.686;2022-09-03T17:08:23;100650.38;;;26.29;52.46
13068;BME280;6600;51.362;6.686;2022-09-03T17:11:02;100652.63;;;26.19;52.62
13068;BME280;6600;51.362;6.686;2022-09-03T17:13:59;100649.97;;;26.13;53.00
13068;BME280;6600;51.362;6.686;2022-09-03T17:19:27;100654.66;;;25.96;54.15
13068;BME280;6600;51.362;6.686;2022-09-03T17:24:42;100649.59;;;25.89;53.97
13068;BME280;6600;51.362;6.686;2022-09-03T17:30:11;100651.22;;;25.90;53.79
13068;BME280;6600;51.362;6.686;2022-09-03T17:44:07;100653.69;;;25.52;58.48
13068;BME280;6600;51.362;6.686;2022-09-03T17:52:20;100675.94;;;24.98;62.12
13068;BME280;6600;51.362;6.686;2022-09-03T17:54:53;100677.91;;;24.84;62.52
13068;BME280;6600;51.362;6.686;2022-09-03T17:57:26;100680.59;;;24.75;62.90
13068;BME280;6600;51.362;6.686;2022-09-03T18:00:09;100685.88;;;24.72;63.71
13068;BME280;6600;51.362;6.686;2022-09-03T18:08:23;100695.91;;;24.40;65.82
13068;BME280;6600;51.362;6.686;2022-09-03T18:11:24;100705.44;;;24.29;66.41
13068;BME280;6600;51.362;6.686;2022-09-03T18:17:05;100726.75;;;24.05;67.94